• Join FlightAware (Why Join?)
  • Login
  • US Flag 
11:08PM EST


 

Airport Tracker/Info


-or-


 

Live Flight TrackerFlight Track Log ✈ SWA558 ✈ 09-Apr-2013 ✈ KTPA - KMHT

Flight Track Log - Related Links

Times and Time Zones

All times are in EDT time to prevent confusion due to time zone crossing. See the SWA558 flight status page for this flight to view local times or setup timezone preferences in your user account.

Time Position Orientation Groundspeed Altitude Reporting Facility
EDT Latitude Longitude Course Direction KTS MPH feet Rate Location/Type
10:06AM 27.9667 -82.5500 199° South 155 178 900  Level Tampa TRACON
10:07AM 27.8833 -82.5833 199° South 214 246 3,900 2,460 Climbing Tampa TRACON
10:11AM 28.1225 -82.5889 359° North 326 375 13,300 2,640 Climbing Jacksonville Center
10:12AM 28.2183 -82.5486 20° North 360 414 16,200 2,640 Climbing Jacksonville Center
10:13AM 28.3183 -82.5058 21° North 370 426 18,600 2,460 Climbing Jacksonville Center
10:14AM 28.4311 -82.4983 North 389 448 21,200 2,640 Climbing Jacksonville Center
10:15AM 28.5458 -82.5097 355° North 389 448 24,000 2,400 Climbing Jacksonville Center
10:16AM 28.6647 -82.5186 356° North 407 468 26,000 1,860 Climbing Jacksonville Center
10:17AM 28.7839 -82.5278 356° North 419 482 27,700 1,680 Climbing Jacksonville Center
10:18AM 28.9092 -82.5367 356° North 432 497 29,400 1,620 Climbing Jacksonville Center
10:19AM 29.0344 -82.5506 354° North 445 512 31,000 1,620 Climbing Jacksonville Center
10:20AM 29.1639 -82.5619 356° North 455 524 32,700 1,800 Climbing Jacksonville Center
10:21AM 29.2911 -82.5736 355° North 455 524 34,600 1,620 Climbing Jacksonville Center
10:22AM 29.4144 -82.5850 355° North 455 524 36,000 660 Climbing Jacksonville Center
10:23AM 29.5542 -82.5967 356° North 455 524 36,000  Level Jacksonville Center
10:24AM 29.6794 -82.6058 356° North 455 524 36,000  Level Jacksonville Center
10:25AM 29.8069 -82.6172 356° North 455 524 36,000  Level Jacksonville Center
10:26AM 29.9322 -82.6289 355° North 460 529 36,000 120 Level Jacksonville Center
10:27AM 30.0553 -82.6431 354° North 460 529 36,300 480 Climbing Jacksonville Center
10:28AM 30.1850 -82.6547 356° North 455 524 37,000 300 Climbing Jacksonville Center
10:29AM 30.3103 -82.6664 355° North 455 524 37,000 660 Level Jacksonville Center
10:30AM 30.4314 -82.6781 355° North 449 517 38,400 960 Climbing Jacksonville Center
10:31AM 30.5522 -82.6658 North 443 510 39,000 300 Climbing Jacksonville Center
10:32AM 30.6586 -82.6147 22° Northeast 439 505 39,000  Level Jacksonville Center
10:33AM 30.7775 -82.5564 23° Northeast 458 527 39,000  Level Jacksonville Center
10:34AM 30.8964 -82.5003 22° Northeast 453 521 39,000  Level Jacksonville Center
10:35AM 31.0153 -82.4392 24° Northeast 451 519 39,000  Level Jacksonville Center
10:36AM 31.1361 -82.3853 21° North 457 526 39,000  Level Jacksonville Center
10:37AM 31.2550 -82.3264 23° Northeast 452 520 39,000  Level Jacksonville Center
10:38AM 31.3736 -82.2647 24° Northeast 458 527 39,000  Level Jacksonville Center
10:39AM 31.4903 -82.2128 21° North 453 521 39,000  Level Jacksonville Center
10:40AM 31.6089 -82.1558 22° Northeast 453 521 39,000  Level Jacksonville Center
10:41AM 31.7381 -82.0864 25° Northeast 459 528 39,000  Level Jacksonville Center
10:42AM 31.8422 -82.0342 23° Northeast 459 528 39,000  Level Jacksonville Center
10:43AM 31.9711 -81.9692 23° Northeast 459 528 39,000  Level Jacksonville Center
10:44AM 32.0875 -81.9142 22° Northeast 454 522 39,000  Level Jacksonville Center
10:45AM 32.1958 -81.8639 21° North 454 522 39,000  Level Jacksonville Center
10:46AM 32.3267 -81.8033 21° North 454 522 39,000  Level Jacksonville Center
10:47AM 32.4453 -81.7478 22° Northeast 454 522 39,000  Level Jacksonville Center
10:48AM 32.5514 -81.6947 23° Northeast 454 522 39,000  Level Jacksonville Center
10:49AM 32.6800 -81.6264 24° Northeast 449 517 39,000  Level Jacksonville Center
10:50AM 32.7775 -81.5508 33° Northeast 454 522 39,000  Level Jacksonville Center
10:51AM 32.8869 -81.4628 34° Northeast 459 528 39,000  Level Jacksonville Center
10:52AM 32.9947 -81.3792 33° Northeast 464 534 39,000  Level Jacksonville Center
10:53AM 33.1019 -81.2931 34° Northeast 469 540 39,000  Level Jacksonville Center
10:54AM 33.2117 -81.2044 34° Northeast 469 540 39,000  Level Jacksonville Center
10:55AM 33.3211 -81.1178 33° Northeast 469 540 39,000  Level Jacksonville Center
10:56AM 33.4283 -81.0336 33° Northeast 464 534 39,000  Level Jacksonville Center
10:57AM 33.5356 -80.9464 34° Northeast 464 534 39,000  Level Jacksonville Center
10:58AM 33.6428 -80.8594 34° Northeast 464 534 39,000  Level Jacksonville Center
10:59AM 33.7600 -80.7667 33° Northeast 464 534 39,000  Level Jacksonville Center
11:00AM 33.8669 -80.6789 34° Northeast 459 528 39,000  Level Jacksonville Center
11:01AM 33.9742 -80.5936 33° Northeast 459 528 39,000  Level Jacksonville Center
11:02AM 34.0808 -80.5056 34° Northeast 459 528 39,000  Level Jacksonville Center
11:03AM 34.1856 -80.4200 34° Northeast 459 528 39,000  Level Jacksonville Center
11:05AM 34.3986 -80.2381 35° Northeast 473 544 39,000  Level Washington Center
11:06AM 34.4936 -80.1578 35° Northeast 460 529 39,000  Level Washington Center
11:07AM 34.5989 -80.0728 34° Northeast 460 529 39,000  Level Washington Center
11:08AM 34.7044 -79.9853 34° Northeast 455 524 39,000  Level Washington Center
11:09AM 34.8119 -79.9000 33° Northeast 455 524 39,000  Level Washington Center
11:10AM 34.9153 -79.8092 36° Northeast 455 524 39,000  Level Washington Center
11:11AM 35.0206 -79.7233 34° Northeast 455 524 39,000  Level Washington Center
11:12AM 35.1258 -79.6322 35° Northeast 455 524 39,000  Level Washington Center
11:13AM 35.2275 -79.5306 39° Northeast 460 529 39,000  Level Washington Center
11:14AM 35.3228 -79.4208 43° Northeast 465 535 39,000  Level Washington Center
11:15AM 35.4222 -79.3108 42° Northeast 470 541 39,000  Level Washington Center
11:16AM 35.5175 -79.2003 43° Northeast 470 541 39,000  Level Washington Center
11:17AM 35.6125 -79.0897 43° Northeast 465 535 39,000  Level Washington Center
11:18AM 35.7075 -78.9814 43° Northeast 460 529 39,000  Level Washington Center
11:19AM 35.8189 -78.8733 38° Northeast 460 529 39,000  Level Washington Center
11:20AM 35.9239 -78.7778 36° Northeast 460 529 39,000  Level Washington Center
11:21AM 36.0286 -78.6844 36° Northeast 460 529 39,000  Level Washington Center
11:22AM 36.1331 -78.5906 36° Northeast 465 535 39,000  Level Washington Center
11:23AM 36.2378 -78.4942 37° Northeast 465 535 39,000  Level Washington Center
11:24AM 36.3403 -78.4000 36° Northeast 465 535 39,000  Level Washington Center
11:25AM 36.4444 -78.3056 36° Northeast 465 535 39,000  Level Washington Center
11:26AM 36.5489 -78.2111 36° Northeast 465 535 39,000  Level Washington Center
11:27AM 36.6364 -78.1233 39° Northeast 465 535 39,000  Level Washington Center
11:28AM 36.7364 -78.0308 37° Northeast 458 527 39,000  Level Washington Center
11:29AM 36.8383 -77.9381 36° Northeast 453 521 39,000  Level Washington Center
11:30AM 36.9361 -77.8447 37° Northeast 448 516 39,000  Level Washington Center
11:31AM 37.0358 -77.7514 37° Northeast 448 516 39,000  Level Washington Center
11:32AM 37.1356 -77.6578 37° Northeast 443 510 39,000  Level Washington Center
11:33AM 37.2350 -77.5667 36° Northeast 443 510 39,000  Level Washington Center
11:34AM 37.3347 -77.4700 38° Northeast 443 510 39,000  Level Washington Center
11:35AM 37.4342 -77.3781 36° Northeast 443 510 39,000  Level Washington Center
11:36AM 37.5336 -77.2808 38° Northeast 443 510 39,000  Level Washington Center
11:37AM 37.6328 -77.1861 37° Northeast 443 510 39,000  Level Washington Center
11:38AM 37.7322 -77.0883 38° Northeast 443 510 39,000  Level Washington Center
11:39AM 37.8314 -76.9931 37° Northeast 443 510 39,000  Level Washington Center
11:40AM 37.9283 -76.8975 38° Northeast 443 510 39,000  Level Washington Center
11:41AM 38.0275 -76.8044 36° Northeast 443 510 39,000  Level Washington Center
11:42AM 38.1264 -76.7056 38° Northeast 443 510 39,000  Level Washington Center
11:43AM 38.2253 -76.6067 38° Northeast 443 510 39,000  Level Washington Center
11:44AM 38.3239 -76.5128 37° Northeast 443 510 39,000  Level Washington Center
11:45AM 38.4228 -76.4158 38° Northeast 443 510 39,000  Level Washington Center
11:46AM 38.5192 -76.3186 38° Northeast 443 510 39,000  Level Washington Center
11:47AM 38.6197 -76.2214 37° Northeast 443 510 39,000  Level Washington Center
11:48AM 38.7286 -76.1158 37° Northeast 443 510 39,000  Level Washington Center
11:49AM 38.8228 -76.0206 38° Northeast 443 510 39,000 420 Level Washington Center
11:50AM 38.9211 -75.9225 38° Northeast 443 510 39,900 720 Climbing Washington Center
11:51AM 39.0172 -75.8267 38° Northeast 443 510 40,500 540 Climbing Washington Center
11:52AM 39.1153 -75.7281 38° Northeast 443 510 41,000 240 Climbing Washington Center
11:53AM 39.2133 -75.6292 38° Northeast 443 510 41,000  Level Washington Center
11:54AM 39.3133 -75.5406 34° Northeast 443 510 41,000  Level Washington Center
11:55AM 39.4197 -75.4625 30° Northeast 431 496 41,000  Level Washington Center
11:56AM 39.5197 -75.3844 31° Northeast 431 496 41,000  Level Washington Center
11:57AM 39.6236 -75.3033 31° Northeast 425 489 41,000  Level Washington Center
11:59AM 39.8347 -75.1342 32° Northeast 439 505 41,000  Level New York Center
12:00PM 39.9400 -75.0514 31° Northeast 439 505 41,000  Level New York Center
12:01PM 40.0492 -74.9711 29° Northeast 445 512 41,000  Level New York Center
12:02PM 40.1500 -74.8878 32° Northeast 439 505 41,000  Level New York Center
12:03PM 40.2550 -74.8042 31° Northeast 439 505 41,000  Level New York Center
12:04PM 40.3581 -74.7203 32° Northeast 439 505 41,000  Level New York Center
12:05PM 40.4664 -74.6556 24° Northeast 439 505 41,000  Level New York Center
12:06PM 40.5761 -74.6128 16° North 417 480 41,000  Level New York Center
12:08PM 40.7781 -74.5394 15° North 415 478 41,000  Level Boston Center
12:09PM 40.8914 -74.4994 15° North 421 484 41,000  Level Boston Center
12:10PM 41.0047 -74.4561 16° North 421 484 41,000  Level Boston Center
12:11PM 41.1181 -74.4183 14° North 421 484 41,000  Level Boston Center
12:12PM 41.2250 -74.3803 15° North 427 491 41,000  Level Boston Center
12:13PM 41.3489 -74.3314 17° North 427 491 41,000  Level Boston Center
12:14PM 41.4642 -74.2906 15° North 427 491 41,000  Level Boston Center
12:15PM 41.5689 -74.2519 15° North 427 491 41,000 -720 Level Boston Center
12:16PM 41.6842 -74.2108 15° North 427 491 39,600 -1,680 Descending Boston Center
12:17PM 41.7994 -74.1694 15° North 412 474 37,800 -1,620 Descending Boston Center
12:18PM 41.8761 -74.0656 45° Northeast 375 432 36,500 -1,140 Descending Boston Center
12:19PM 41.9406 -73.9250 58° Northeast 396 456 35,600 -960 Descending Boston Center
12:20PM 42.0047 -73.7839 59° Northeast 420 483 34,600 -1,080 Descending Boston Center
12:21PM 42.0667 -73.6453 59° Northeast 455 524 33,500 -1,920 Descending Boston Center
12:22PM 42.1286 -73.5094 58° Northeast 455 524 30,800 -3,000 Descending Boston Center
12:23PM 42.1903 -73.3731 59° Northeast 445 512 27,400 -3,240 Descending Boston Center
12:24PM 42.2561 -73.2228 59° Northeast 432 497 24,300 -2,160 Descending Boston Center
12:25PM 42.3153 -73.0914 59° Northeast 427 491 23,200 -1,500 Descending Boston Center
12:26PM 42.3678 -72.9711 59° Northeast 420 483 21,400 -1,920 Descending Boston Center
12:27PM 42.4206 -72.8478 60° Northeast 398 458 19,400 -1,260 Descending Boston Center
12:28PM 42.4731 -72.7244 60° Northeast 354 407 19,000 -600 Descending Boston Center
12:29PM 42.5275 -72.6092 57° Northeast 354 407 18,300 -1,320 Descending Boston Center
12:30PM 42.5775 -72.4964 59° Northeast 349 402 16,400 -1,920 Descending Boston Center
12:31PM 42.6381 -72.3556 60° Northeast 349 402 14,100 -1,980 Descending Boston Center
12:32PM 42.6836 -72.2425 61° Northeast 354 407 12,100 -1,680 Descending Boston Center
12:33PM 42.7272 -72.1433 59° Northeast 354 407 10,800 -1,380 Descending Boston Center
12:34PM 42.7728 -72.0272 62° Northeast 325 374 9,500 -1,500 Descending Boston Center
12:35PM 42.7722 -71.9169 90° East 309 356 7,900 -1,620 Descending Boston Center
12:36PM 42.7717 -71.7867 90° East 309 356 6,300 -1,680 Descending Boston Center
12:37PM 42.7772 -71.6906 85° East 298 343 4,600 -1,200 Descending Boston Center
12:38PM 42.7931 -71.5800 79° East 268 308 4,000 -720 Descending Boston Center
12:39PM 42.8069 -71.4950 77° East 253 291 3,200 -720 Descending Boston Center
12:40PM 42.8314 -71.4039 70° East 236 272 2,600 -660 Descending Boston Center
12:41PM 42.8667 -71.3978 North 141 162 1,900 -960 Descending Boston Center
12:42PM 42.9044 -71.4169 340° North 126 145 700 -720 Descending Boston Center
12:43PM 42.9378 -71.4278 347° North 126 145 500 4,140 Descending Boston Center
12:44PM 42.9692 -71.4414 342° North 126 145 9,000 4,200 Climbing Boston Center
12:45PM 43.0006 -71.4550 342° North 126 145 9,000  Level Boston Center
12:46PM 43.0319 -71.4686 342° North 126 145 9,000  Level Boston Center
12:47PM 43.0444 -71.4742 342° North 126 145 9,000  Level Boston Center
12:49PM 42.9328 -71.4358 168° South  Level Estimated
12:56PM 42.9328 -71.4358 168° South  Level Estimated
12:57PM 42.9328 -71.4358 168° South  Level Estimated
12:58PM 42.9328 -71.4358 168° South  Level Estimated
12:59PM 42.9328 -71.4358 168° South  Level Estimated
01:00PM 42.9328 -71.4358 168° South  Level Estimated